createdAt,value
2018-11-22T00:02:24.910Z,95665.29
2018-11-22T00:04:56.235Z,95669.95
2018-11-22T00:07:29.189Z,95671.25
2018-11-22T00:10:00.747Z,95673.59
2018-11-22T00:12:33.835Z,95675.52
2018-11-22T00:15:06.031Z,95678.89
2018-11-22T00:17:37.380Z,95681.52
2018-11-22T00:20:08.793Z,95680.30
2018-11-22T00:22:40.165Z,95684.98
2018-11-22T00:25:13.054Z,95684.35
2018-11-22T00:27:44.340Z,95685.77
2018-11-22T00:30:18.262Z,95683.74
2018-11-22T00:32:49.609Z,95694.40
2018-11-22T00:35:21.386Z,95690.94
2018-11-22T00:37:53.433Z,95691.77
2018-11-22T00:40:26.282Z,95688.42
2018-11-22T00:42:57.601Z,95695.92
2018-11-22T00:45:30.065Z,95701.60
2018-11-22T00:48:01.292Z,95700.70
2018-11-22T00:50:32.576Z,95697.88
2018-11-22T00:53:03.913Z,95695.33
2018-11-22T00:55:35.213Z,95694.80
2018-11-22T00:58:07.381Z,95698.06
2018-11-22T01:00:39.137Z,95703.76
2018-11-22T01:03:10.411Z,95705.58
2018-11-22T01:05:41.690Z,95704.14
2018-11-22T01:08:13.012Z,95708.21
2018-11-22T01:10:44.228Z,95705.50
2018-11-22T01:13:15.575Z,95709.37
2018-11-22T01:15:47.769Z,95715.34
2018-11-22T01:18:19.116Z,95710.66
2018-11-22T01:20:50.336Z,95714.90
2018-11-22T01:23:21.710Z,95714.80
2018-11-22T01:25:53.199Z,95718.76
2018-11-22T01:28:24.406Z,95719.08
2018-11-22T01:30:56.193Z,95718.98
2018-11-22T01:33:27.493Z,95719.37
2018-11-22T01:35:58.829Z,95713.80
2018-11-22T01:38:30.112Z,95721.01
2018-11-22T01:41:01.770Z,95713.98
2018-11-22T01:43:32.980Z,95719.74
2018-11-22T01:46:04.378Z,95715.79
2018-11-22T01:48:35.758Z,95720.03
2018-11-22T01:51:07.469Z,95720.22
2018-11-22T01:53:38.827Z,95719.72
2018-11-22T01:56:10.188Z,95718.20
2018-11-22T01:58:41.521Z,95716.17
2018-11-22T02:01:12.884Z,95719.28
2018-11-22T02:03:44.190Z,95719.08
2018-11-22T02:06:15.491Z,95719.25
2018-11-22T02:08:46.823Z,95715.48
2018-11-22T02:11:18.210Z,95710.47
2018-11-22T02:13:49.616Z,95721.06
2018-11-22T02:16:20.888Z,95719.19
2018-11-22T02:18:52.254Z,95720.53
2018-11-22T02:21:23.670Z,95728.97
2018-11-22T02:23:55.400Z,95725.04
2018-11-22T02:26:26.946Z,95722.47
2018-11-22T02:28:58.247Z,95731.23
2018-11-22T02:31:35.122Z,95733.80
2018-11-22T02:34:07.017Z,95725.70
2018-11-22T02:36:38.442Z,95726.59
2018-11-22T02:39:12.688Z,95732.08
2018-11-22T02:41:44.718Z,95729.71
2018-11-22T02:44:16.798Z,95732.48
2018-11-22T02:46:48.352Z,95732.66
2018-11-22T02:49:20.613Z,95736.56
2018-11-22T02:51:51.924Z,95742.73
2018-11-22T02:54:23.384Z,95743.37
2018-11-22T02:56:54.743Z,95740.65
2018-11-22T02:59:26.017Z,95735.39
2018-11-22T03:01:57.911Z,95739.33
2018-11-22T03:04:31.389Z,95728.01
2018-11-22T03:07:03.024Z,95735.91
2018-11-22T03:09:34.458Z,95732.81
2018-11-22T03:12:07.154Z,95734.54
2018-11-22T03:14:38.597Z,95736.33
2018-11-22T03:17:10.027Z,95730.44
2018-11-22T03:19:42.790Z,95734.07
2018-11-22T03:22:14.140Z,95737.53
2018-11-22T03:24:45.365Z,95735.27
2018-11-22T03:27:16.683Z,95735.09
2018-11-22T03:29:47.994Z,95739.95
2018-11-22T03:32:19.723Z,95741.16
2018-11-22T03:34:51.488Z,95739.22
2018-11-22T03:37:22.836Z,95738.45
2018-11-22T03:39:55.129Z,95738.88
2018-11-22T03:42:26.706Z,95742.47
2018-11-22T03:44:57.920Z,95743.38
2018-11-22T03:47:29.314Z,95747.74
2018-11-22T03:50:01.132Z,95746.31
2018-11-22T03:52:32.807Z,95737.81
2018-11-22T03:55:04.015Z,95741.39
2018-11-22T03:57:35.325Z,95741.30
2018-11-22T04:00:08.370Z,95739.48
2018-11-22T04:02:40.022Z,95741.59
2018-11-22T04:05:14.222Z,95741.13
2018-11-22T04:07:45.403Z,95741.63
2018-11-22T04:10:21.646Z,95739.42
2018-11-22T04:12:52.979Z,95741.30
2018-11-22T04:15:24.279Z,95743.38
2018-11-22T04:17:55.336Z,95741.14
2018-11-22T04:20:29.997Z,95741.14
2018-11-22T04:23:01.073Z,95746.30
2018-11-22T04:25:32.407Z,95737.30
2018-11-22T04:28:03.652Z,95739.76
2018-11-22T04:30:35.717Z,95739.53
2018-11-22T04:33:07.080Z,95739.13
2018-11-22T04:35:38.202Z,95733.16
2018-11-22T04:38:09.413Z,95741.64
2018-11-22T04:40:41.335Z,95738.20
2018-11-22T04:43:12.999Z,95744.82
2018-11-22T04:45:44.431Z,95747.44
2018-11-22T04:48:15.529Z,95744.12
2018-11-22T04:50:46.583Z,95750.89
2018-11-22T04:53:17.725Z,95750.28
2018-11-22T04:55:48.926Z,95752.71
2018-11-22T04:58:20.569Z,95753.23
2018-11-22T05:00:51.752Z,95746.65
2018-11-22T05:03:22.897Z,95755.34
2018-11-22T05:05:54.797Z,95755.73
2018-11-22T05:08:27.001Z,95753.92
2018-11-22T05:10:58.177Z,95751.72
2018-11-22T05:13:29.265Z,95749.90
2018-11-22T05:16:01.553Z,95749.62
2018-11-22T05:18:32.715Z,95751.41
2018-11-22T05:21:03.849Z,95750.40
2018-11-22T05:23:35.244Z,95743.58
2018-11-22T05:26:06.530Z,95747.27
2018-11-22T05:28:37.748Z,95744.69
2018-11-22T05:31:08.951Z,95746.72
2018-11-22T05:33:40.007Z,95757.41
2018-11-22T05:36:11.212Z,95752.66
2018-11-22T05:38:42.444Z,95761.92
2018-11-22T05:41:13.934Z,95760.80
2018-11-22T05:43:45.465Z,95761.33
2018-11-22T05:46:17.456Z,95760.07
2018-11-22T05:48:48.987Z,95756.33
2018-11-22T05:51:20.175Z,95755.41
2018-11-22T05:53:51.286Z,95753.77
2018-11-22T05:56:22.462Z,95763.76
2018-11-22T05:58:53.709Z,95760.69
2018-11-22T06:01:24.981Z,95756.50
2018-11-22T06:03:56.065Z,95762.53
2018-11-22T06:06:27.262Z,95757.78
2018-11-22T06:08:58.636Z,95764.69
2018-11-22T06:11:29.828Z,95768.44
2018-11-22T06:14:01.212Z,95768.51
2018-11-22T06:16:32.722Z,95767.80
2018-11-22T06:19:03.941Z,95767.45
2018-11-22T06:21:35.133Z,95766.05
2018-11-22T06:24:06.608Z,95769.00
2018-11-22T06:26:39.272Z,95769.85
2018-11-22T06:29:09.942Z,95772.26
2018-11-22T06:31:41.211Z,95770.32
2018-11-22T06:34:12.458Z,95770.99
2018-11-22T06:36:43.739Z,95771.48
2018-11-22T06:39:15.157Z,95776.17
2018-11-22T06:41:46.814Z,95777.48
2018-11-22T06:44:18.274Z,95780.13
2018-11-22T06:46:54.130Z,95780.53
2018-11-22T06:49:25.270Z,95789.01
2018-11-22T06:51:57.695Z,95786.46
2018-11-22T06:54:28.969Z,95793.78
2018-11-22T06:57:00.373Z,95791.73
2018-11-22T06:59:33.375Z,95791.73
2018-11-22T07:02:04.740Z,95786.70
2018-11-22T07:04:36.078Z,95789.15
2018-11-22T07:07:07.648Z,95786.55
2018-11-22T07:09:38.931Z,95784.06
2018-11-22T07:12:11.086Z,95781.51
2018-11-22T07:14:42.601Z,95790.62
2018-11-22T07:17:14.128Z,95790.83
2018-11-22T07:19:45.550Z,95787.58
2018-11-22T07:22:18.950Z,95783.70
2018-11-22T07:24:48.497Z,95782.01
2018-11-22T07:27:19.893Z,95784.06
2018-11-22T07:29:52.198Z,95785.96
2018-11-22T07:32:23.558Z,95788.80
2018-11-22T07:34:55.412Z,95786.98
2018-11-22T07:37:26.691Z,95784.78
2018-11-22T07:39:57.894Z,95783.88
2018-11-22T07:45:01.518Z,95795.48
2018-11-22T07:47:35.184Z,95793.84
2018-11-22T07:50:12.138Z,95789.48
2018-11-22T07:52:43.425Z,95800.28
2018-11-22T07:55:16.235Z,95799.49
2018-11-22T07:57:48.438Z,95800.52
2018-11-22T08:00:22.058Z,95801.55
2018-11-22T08:02:56.823Z,95799.84
2018-11-22T08:05:30.556Z,95808.36
2018-11-22T08:08:01.922Z,95804.81
2018-11-22T08:10:33.254Z,95806.38
2018-11-22T08:13:04.692Z,95807.48
2018-11-22T08:15:38.114Z,95808.23
2018-11-22T08:18:10.134Z,95807.45
2018-11-22T08:20:41.721Z,95810.13
2018-11-22T08:23:13.071Z,95814.16
2018-11-22T08:25:45.048Z,95818.07
2018-11-22T08:28:16.516Z,95817.73
2018-11-22T08:30:47.975Z,95819.75
2018-11-22T08:33:19.276Z,95822.73
2018-11-22T08:35:50.791Z,95818.52
2018-11-22T08:38:22.241Z,95823.01
2018-11-22T08:40:53.623Z,95820.78
2018-11-22T08:43:25.677Z,95824.98
2018-11-22T08:45:57.102Z,95824.13
2018-11-22T08:48:28.326Z,95822.68
2018-11-22T08:50:59.675Z,95823.74
2018-11-22T08:53:36.964Z,95819.73
2018-11-22T08:56:02.271Z,95823.08
2018-11-22T08:58:33.632Z,95823.74
2018-11-22T09:01:05.029Z,95823.16
2018-11-22T09:03:37.277Z,95821.40
2018-11-22T09:06:09.206Z,95822.63
2018-11-22T09:08:40.582Z,95821.88
2018-11-22T09:11:12.444Z,95822.63
2018-11-22T09:13:43.284Z,95821.97
2018-11-22T09:16:14.141Z,95820.77
2018-11-22T09:18:44.977Z,95829.70
2018-11-22T09:21:53.540Z,95833.09
2018-11-22T09:24:43.734Z,95832.39
2018-11-22T09:27:26.609Z,95761.84
2018-11-22T09:30:48.105Z,95836.17
2018-11-22T09:33:26.433Z,95834.61
2018-11-22T09:36:35.383Z,95841.06
2018-11-22T09:39:25.229Z,95839.95
2018-11-22T09:42:15.210Z,95845.31
2018-11-22T09:45:30.196Z,95809.08
2018-11-22T09:48:20.027Z,95837.20
2018-11-22T09:51:09.886Z,95827.17
2018-11-22T09:54:07.245Z,95830.46
2018-11-22T09:56:57.215Z,95761.89
2018-11-22T09:59:47.072Z,95826.25
2018-11-22T10:02:36.932Z,95832.75
2018-11-22T10:05:45.949Z,95827.90
2018-11-22T10:08:35.908Z,95800.16
2018-11-22T10:11:26.573Z,95827.58
2018-11-22T10:14:16.401Z,95821.31
2018-11-22T10:17:06.267Z,95797.56
2018-11-22T10:22:53.642Z,95822.33
2018-11-22T10:25:43.483Z,95824.98
2018-11-22T10:31:42.349Z,95773.96
2018-11-22T10:34:33.043Z,95777.39
2018-11-22T10:40:20.056Z,95824.73
2018-11-22T10:43:28.958Z,95740.05
2018-11-22T10:46:37.867Z,95821.63
2018-11-22T10:49:27.685Z,95821.64
2018-11-22T10:55:15.135Z,95819.42
2018-11-22T10:58:04.985Z,95720.05
2018-11-22T11:01:13.447Z,95783.75
2018-11-22T11:04:21.917Z,95820.23
2018-11-22T11:07:30.342Z,95816.67
2018-11-22T11:10:39.280Z,95779.22
2018-11-22T11:13:29.144Z,95818.58
2018-11-22T11:16:19.053Z,95831.43
2018-11-22T11:19:08.858Z,95776.10
2018-11-22T11:22:17.796Z,95793.59
2018-11-22T11:24:59.926Z,95811.30
2018-11-22T11:27:50.039Z,95809.78
2018-11-22T11:30:40.036Z,95806.67
2018-11-22T11:33:29.878Z,95792.68
2018-11-22T11:36:20.075Z,95815.22
2018-11-22T11:39:11.208Z,95806.00
2018-11-22T11:41:42.490Z,95797.31
2018-11-22T11:44:13.527Z,95802.76
2018-11-22T11:46:44.454Z,95795.08
2018-11-22T11:49:15.541Z,95799.23
2018-11-22T11:51:46.343Z,95794.46
2018-11-22T11:54:17.184Z,95791.09
2018-11-22T11:56:48.306Z,95793.36
2018-11-22T11:59:19.139Z,95795.63
2018-11-22T12:01:49.973Z,95789.16
2018-11-22T12:04:20.760Z,95791.66
2018-11-22T12:06:51.569Z,95795.22
2018-11-22T12:09:22.478Z,95795.70
2018-11-22T12:11:53.615Z,95783.98
2018-11-22T12:14:24.526Z,95776.66
2018-11-22T12:16:55.373Z,95781.01
2018-11-22T12:19:26.173Z,95784.90
2018-11-22T12:21:57.069Z,95776.14
2018-11-22T12:24:28.423Z,95781.05
2018-11-22T12:26:59.356Z,95773.23
2018-11-22T12:29:30.242Z,95771.16
2018-11-22T12:32:32.769Z,95773.02
2018-11-22T12:35:21.044Z,95773.89
2018-11-22T12:38:09.388Z,95771.78
2018-11-22T12:40:40.229Z,95774.95
2018-11-22T12:43:11.173Z,95767.09
2018-11-22T12:45:42.063Z,95768.30
2018-11-22T12:48:12.947Z,95770.52
2018-11-22T12:50:43.777Z,95766.70
2018-11-22T12:53:14.667Z,95766.00
2018-11-22T12:55:45.559Z,95765.08
2018-11-22T12:58:16.353Z,95761.69
2018-11-22T13:00:47.160Z,95752.83
2018-11-22T13:03:18.081Z,95759.88
2018-11-22T13:05:49.261Z,95758.83
2018-11-22T13:08:20.157Z,95759.83
2018-11-22T13:10:51.188Z,95763.61
2018-11-22T13:13:21.992Z,95754.66
2018-11-22T13:15:52.984Z,95759.65
2018-11-22T13:18:23.984Z,95760.28
2018-11-22T13:20:54.859Z,95765.28
2018-11-22T13:23:26.235Z,95764.47
2018-11-22T13:25:57.067Z,95758.05
2018-11-22T13:28:27.937Z,95759.54
2018-11-22T13:30:59.215Z,95762.87
2018-11-22T13:33:30.078Z,95756.23
2018-11-22T13:36:00.992Z,95765.58
2018-11-22T13:38:31.855Z,95765.89
2018-11-22T13:41:02.759Z,95770.00
2018-11-22T13:43:33.605Z,95769.16
2018-11-22T13:46:05.379Z,95775.56
2018-11-22T13:48:36.200Z,95778.60
2018-11-22T13:51:07.206Z,95778.73
2018-11-22T13:53:38.059Z,95775.98
2018-11-22T13:56:09.101Z,95776.20
2018-11-22T13:58:39.906Z,95779.84
2018-11-22T14:01:10.720Z,95785.78
2018-11-22T14:03:41.652Z,95785.69
2018-11-22T14:06:12.890Z,95789.09
2018-11-22T14:08:43.705Z,95789.41
2018-11-22T14:11:15.326Z,95786.96
2018-11-22T14:13:46.375Z,95794.19
2018-11-22T14:16:17.201Z,95790.80
2018-11-22T14:18:48.099Z,95786.37
2018-11-22T14:21:18.943Z,95791.77
2018-11-22T14:23:49.810Z,95794.83
2018-11-22T14:26:20.699Z,95795.95
2018-11-22T14:28:51.520Z,95798.84
2018-11-22T14:31:22.333Z,95796.34
2018-11-22T14:33:53.358Z,95807.17
2018-11-22T14:36:24.165Z,95812.78
2018-11-22T14:38:54.982Z,95812.78
2018-11-22T14:41:25.801Z,95806.12
2018-11-22T14:43:56.733Z,95816.37
2018-11-22T14:46:27.573Z,95816.09
2018-11-22T14:48:58.353Z,95814.18
2018-11-22T14:51:50.513Z,95816.73
2018-11-22T14:54:21.351Z,95813.56
2018-11-22T14:56:52.158Z,95820.06
2018-11-22T14:59:22.967Z,95821.98
2018-11-22T15:01:53.768Z,95819.14
2018-11-22T15:04:24.576Z,95823.27
2018-11-22T15:06:55.475Z,95822.59
2018-11-22T15:09:26.323Z,95819.77
2018-11-22T15:11:57.220Z,95819.73
2018-11-22T15:14:28.109Z,95823.63
2018-11-22T15:16:58.936Z,95819.92
2018-11-22T15:19:29.750Z,95826.69
2018-11-22T15:22:00.549Z,95825.40
2018-11-22T15:24:31.507Z,95830.11
2018-11-22T15:27:02.478Z,95830.11
2018-11-22T15:29:33.267Z,95820.05
2018-11-22T15:32:04.092Z,95824.31
2018-11-22T15:34:34.936Z,95830.47
2018-11-22T15:37:06.032Z,95831.89
2018-11-22T15:39:36.812Z,95837.98
2018-11-22T15:42:08.037Z,95833.19
2018-11-22T15:44:39.391Z,95837.00
2018-11-22T15:47:10.356Z,95848.64
2018-11-22T15:49:41.418Z,95846.34
2018-11-22T15:52:12.429Z,95852.61
2018-11-22T15:54:43.518Z,95849.98
2018-11-22T15:57:14.770Z,95853.70
2018-11-22T15:59:45.707Z,95853.22
2018-11-22T16:02:16.892Z,95859.19
2018-11-22T16:04:48.146Z,95863.16
2018-11-22T16:07:18.980Z,95860.19
2018-11-22T16:09:49.958Z,95867.52
2018-11-22T16:12:21.463Z,95868.58
2018-11-22T16:14:52.373Z,95864.91
2018-11-22T16:17:23.183Z,95869.91
2018-11-22T16:19:54.234Z,95873.29
2018-11-22T16:22:25.114Z,95865.96
2018-11-22T16:24:56.098Z,95872.25
2018-11-22T16:27:27.120Z,95872.86
2018-11-22T16:29:57.950Z,95870.98
2018-11-22T16:32:28.820Z,95868.62
2018-11-22T16:34:59.760Z,95874.73
2018-11-22T16:37:30.640Z,95870.43
2018-11-22T16:40:01.576Z,95863.83
2018-11-22T16:42:32.690Z,95859.82
2018-11-22T16:45:03.560Z,95858.73
2018-11-22T16:47:34.366Z,95862.93
2018-11-22T16:50:05.564Z,95867.42
2018-11-22T16:52:36.426Z,95867.19
2018-11-22T16:55:08.538Z,95869.84
2018-11-22T16:57:39.717Z,95873.11
2018-11-22T17:00:22.198Z,95875.02
2018-11-22T17:02:54.085Z,95875.95
2018-11-22T17:05:25.231Z,95875.96
2018-11-22T17:07:56.354Z,95876.56
2018-11-22T17:10:28.395Z,95876.17
2018-11-22T17:13:00.371Z,95877.78
2018-11-22T17:15:32.856Z,95879.32
2018-11-22T17:18:04.506Z,95884.81
2018-11-22T17:20:35.761Z,95881.04
2018-11-22T17:23:08.013Z,95881.86
2018-11-22T17:25:39.490Z,95888.69
2018-11-22T17:28:11.112Z,95883.17
2018-11-22T17:30:43.405Z,95888.18
2018-11-22T17:33:14.347Z,95881.08
2018-11-22T17:35:45.548Z,95884.72
2018-11-22T17:38:16.572Z,95885.22
2018-11-22T17:41:26.334Z,95883.41
2018-11-22T17:44:16.479Z,95821.73
2018-11-22T17:50:16.570Z,95881.19
2018-11-22T17:53:26.319Z,95871.94
2018-11-22T17:56:16.172Z,95881.87
2018-11-22T17:59:06.389Z,95823.44
2018-11-22T18:01:56.505Z,95884.22
2018-11-22T18:07:42.379Z,95888.80
2018-11-22T18:10:51.372Z,95868.97
2018-11-22T18:13:59.918Z,95889.30
2018-11-22T18:17:09.261Z,95891.33
2018-11-22T18:19:59.206Z,95886.97
2018-11-22T18:23:11.447Z,95919.30
2018-11-22T18:26:17.990Z,95880.36
2018-11-22T18:29:07.851Z,95878.33
2018-11-22T18:31:57.747Z,95852.11
2018-11-22T18:34:48.009Z,95879.44
2018-11-22T18:37:19.943Z,95876.69
2018-11-22T18:39:51.361Z,95880.05
2018-11-22T18:42:22.844Z,95887.27
2018-11-22T18:44:54.736Z,95883.19
2018-11-22T18:47:26.055Z,95884.33
2018-11-22T18:49:57.390Z,95885.55
2018-11-22T18:52:28.632Z,95886.76
2018-11-22T18:55:00.220Z,95886.97
2018-11-22T18:57:31.592Z,95885.83
2018-11-22T19:00:03.057Z,95888.40
2018-11-22T19:02:34.669Z,95889.51
2018-11-22T19:05:11.889Z,95891.05
2018-11-22T19:07:44.289Z,95888.90
2018-11-22T19:10:18.721Z,95884.22
2018-11-22T19:12:51.375Z,95889.11
2018-11-22T19:15:24.640Z,95890.10
2018-11-22T19:17:56.173Z,95892.72
2018-11-22T19:20:31.665Z,95894.06
2018-11-22T19:23:03.876Z,95897.41
2018-11-22T19:25:35.253Z,95905.56
2018-11-22T19:28:07.885Z,95907.89
2018-11-22T19:30:44.553Z,95904.73
2018-11-22T19:33:17.952Z,95905.66
2018-11-22T19:35:51.194Z,95914.91
2018-11-22T19:38:23.177Z,95910.20
2018-11-22T19:40:54.609Z,95910.39
2018-11-22T19:43:26.051Z,95920.28
2018-11-22T19:45:57.413Z,95920.45
2018-11-22T19:48:28.840Z,95924.41
2018-11-22T19:51:05.565Z,95916.67
2018-11-22T19:53:32.714Z,95908.87
2018-11-22T19:56:04.219Z,95916.08
2018-11-22T19:58:35.747Z,95909.88
2018-11-22T20:01:07.934Z,95917.39
2018-11-22T20:03:39.591Z,95919.83
2018-11-22T20:06:11.359Z,95916.49
2018-11-22T20:08:42.668Z,95918.83
2018-11-22T20:11:14.181Z,95913.34
2018-11-22T20:13:46.814Z,95905.15
2018-11-22T20:16:18.309Z,95907.87
2018-11-22T20:18:50.751Z,95907.94
2018-11-22T20:21:22.221Z,95904.09
2018-11-22T20:23:53.512Z,95914.88
2018-11-22T20:26:24.940Z,95915.59
2018-11-22T20:28:56.285Z,95916.00
2018-11-22T20:31:28.104Z,95916.60
2018-11-22T20:33:59.560Z,95914.89
2018-11-22T20:36:30.982Z,95912.97
2018-11-22T20:39:02.369Z,95918.42
2018-11-22T20:41:33.692Z,95919.45
2018-11-22T20:44:05.346Z,95913.95
2018-11-22T20:46:37.182Z,95914.66
2018-11-22T20:49:08.712Z,95914.16
2018-11-22T20:51:40.345Z,95905.12
2018-11-22T20:54:14.655Z,95905.41
2018-11-22T20:56:46.055Z,95904.80
2018-11-22T20:59:19.504Z,95914.22
2018-11-22T21:01:51.707Z,95906.20
2018-11-22T21:04:23.284Z,95907.84
2018-11-22T21:06:54.796Z,95907.05
2018-11-22T21:09:26.224Z,95905.00
2018-11-22T21:11:57.686Z,95902.95
2018-11-22T21:14:28.845Z,95909.05
2018-11-22T21:17:00.730Z,95913.02
2018-11-22T21:19:31.890Z,95911.58
2018-11-22T21:22:03.308Z,95904.58
2018-11-22T21:24:35.632Z,95910.13
2018-11-22T21:27:08.105Z,95910.56
2018-11-22T21:29:39.348Z,95908.97
2018-11-22T21:32:10.606Z,95904.74
2018-11-22T21:34:42.385Z,95913.86
2018-11-22T21:37:13.609Z,95916.18
2018-11-22T21:39:45.126Z,95917.94
2018-11-22T21:42:16.434Z,95922.37
2018-11-22T21:44:47.748Z,95922.75
2018-11-22T21:47:19.288Z,95917.56
2018-11-22T21:49:50.444Z,95917.91
2018-11-22T21:52:21.855Z,95919.14
2018-11-22T21:54:53.390Z,95916.68
2018-11-22T21:57:24.680Z,95923.69
2018-11-22T21:59:56.021Z,95916.34
2018-11-22T22:02:27.659Z,95924.33
2018-11-22T22:04:59.024Z,95926.77
2018-11-22T22:07:30.289Z,95930.41
2018-11-22T22:10:01.702Z,95928.99
2018-11-22T22:12:32.885Z,95931.20
2018-11-22T22:15:04.644Z,95930.78
2018-11-22T22:17:36.274Z,95935.06
2018-11-22T22:20:11.418Z,95943.25
2018-11-22T22:22:49.975Z,95944.30
2018-11-22T22:25:23.435Z,95934.30
2018-11-22T22:27:56.065Z,95935.83
2018-11-22T22:30:28.781Z,95933.52
2018-11-22T22:33:01.790Z,95937.56
2018-11-22T22:35:33.553Z,95939.96
2018-11-22T22:38:05.122Z,95935.01
2018-11-22T22:40:36.713Z,95932.46
2018-11-22T22:43:08.024Z,95939.84
2018-11-22T22:45:39.284Z,95938.11
2018-11-22T22:48:11.109Z,95939.31
2018-11-22T22:50:42.469Z,95941.34
2018-11-22T22:53:13.922Z,95942.00
2018-11-22T22:55:45.507Z,95949.91
2018-11-22T22:58:16.634Z,95944.88
2018-11-22T23:00:51.419Z,95942.70
2018-11-22T23:03:22.572Z,95940.22
2018-11-22T23:05:54.011Z,95942.33
2018-11-22T23:08:26.038Z,95954.00
2018-11-22T23:10:57.691Z,95947.16
2018-11-22T23:13:28.689Z,95944.11
2018-11-22T23:16:01.094Z,95951.77
2018-11-22T23:18:32.519Z,95952.55
2018-11-22T23:21:03.744Z,95957.75
2018-11-22T23:23:35.011Z,95950.70
2018-11-22T23:26:06.462Z,95953.75
2018-11-22T23:28:37.851Z,95953.00
2018-11-22T23:31:10.191Z,95947.28
2018-11-22T23:33:41.594Z,95952.14
2018-11-22T23:36:12.685Z,95947.48
2018-11-22T23:38:43.990Z,95955.44
2018-11-22T23:41:15.264Z,95954.28
2018-11-22T23:43:46.628Z,95957.99
2018-11-22T23:46:18.180Z,95955.73
2018-11-22T23:48:50.342Z,95948.75
2018-11-22T23:51:21.837Z,95945.92
2018-11-22T23:53:54.318Z,95947.23
2018-11-22T23:56:27.866Z,95939.36
2018-11-22T23:58:59.299Z,95941.67
